Terminal Aerodrome Forecast
Issued by NWS

Home | Current Version | Previous Version | Text Only | Print | Product List | Glossary On
Versions: 1 2 3 4 5 6 7 8 9 10 11 12 13 14 15 16 17 18 19 20 21
382
FTUS46 KMFR 210912 AAA
TAFOTH
TAF AMD
KOTH 210912Z 2109/2206 34008KT 1 1/2SM BR OVC002
     FM211400 36005KT 1/2SM FG OVC002
     FM211800 35015KT P6SM SCT005
     FM212000 35020G27KT P6SM SKC
     FM220300 35011KT 4SM BR OVC005=

USA.gov is the U.S. government's official web portal to all federal, state and local government web resources and services.